Fresh Meadows, New York
Current Conditions -  °F | °C
As of 7:51 PM on Monday 24 Nov 2014 (Local Time) from KLGA Reporting Station
Clear Clear  
Wind Chill: 65°   Ceiling: Unl
Heat Index: 65°   Visibility: 10mi
Dew Point: 55°   Wind: 13mph
Humidity: 70%   Direction: 200°SSW
Pressure: 29.68"   Gusts: NA
Location:  40.73°N, 73.79°W
Report Text: KLGA 250051Z 20011KT 10SM CLR 18/13 A2968 RMK AO2 SLP051 T01830128
Loading
Personal Weather Stations






























Interactive Weather Map New forecast layout! Learn more

10-Day Weather Forecast

Advertisements
Track Severe Weather on mobile